createdAt,value
2022-10-02T00:00:22.139Z,1003.25
2022-10-02T00:01:22.266Z,1003.3
2022-10-02T00:02:22.121Z,1003.33
2022-10-02T00:03:22.159Z,1003.3
2022-10-02T00:04:22.256Z,1003.31
2022-10-02T00:05:22.143Z,1003.29
2022-10-02T00:06:22.119Z,1003.36
2022-10-02T00:07:22.138Z,1003.37
2022-10-02T00:08:26.141Z,1003.41
2022-10-02T00:09:22.241Z,1003.39
2022-10-02T00:10:22.139Z,1003.4
2022-10-02T00:11:22.132Z,1003.37
2022-10-02T00:12:22.196Z,1003.45
2022-10-02T00:13:22.143Z,1003.36
2022-10-02T00:14:22.128Z,1003.41
2022-10-02T00:15:22.135Z,1003.41
2022-10-02T00:16:22.170Z,1003.37
2022-10-02T00:17:22.116Z,1003.49
2022-10-02T00:18:22.138Z,1003.48
2022-10-02T00:19:22.153Z,1003.52
2022-10-02T00:20:22.146Z,1003.49
2022-10-02T00:21:22.154Z,1003.56
2022-10-02T00:22:22.141Z,1003.51
2022-10-02T00:23:22.144Z,1003.52
2022-10-02T00:24:22.124Z,1003.57
2022-10-02T00:25:22.114Z,1003.48
2022-10-02T00:26:22.122Z,1003.45
2022-10-02T00:27:22.170Z,1003.52
2022-10-02T00:28:22.161Z,1003.49
2022-10-02T00:29:22.248Z,1003.49
2022-10-02T00:30:22.120Z,1003.5
2022-10-02T00:31:22.905Z,1003.49
2022-10-02T00:32:22.857Z,1003.5
2022-10-02T00:33:22.131Z,1003.5
2022-10-02T00:34:22.397Z,1003.51
2022-10-02T00:35:22.481Z,1003.51
2022-10-02T00:36:22.205Z,1003.57
2022-10-02T00:37:22.238Z,1003.57
2022-10-02T00:38:22.345Z,1003.56
2022-10-02T00:39:22.114Z,1003.55
2022-10-02T00:40:22.409Z,1003.6
2022-10-02T00:41:22.597Z,1003.6
2022-10-02T00:42:22.583Z,1003.61
2022-10-02T00:43:22.900Z,1003.6
2022-10-02T00:44:22.472Z,1003.61
2022-10-02T00:45:22.157Z,1003.59
2022-10-02T00:46:22.255Z,1003.55
2022-10-02T00:47:22.157Z,1003.55
2022-10-02T00:48:22.143Z,1003.6
2022-10-02T00:49:22.166Z,1003.62
2022-10-02T00:50:22.161Z,1003.53
2022-10-02T00:51:22.162Z,1003.55
2022-10-02T00:52:22.171Z,1003.56
2022-10-02T00:53:22.168Z,1003.59
2022-10-02T00:54:22.167Z,1003.57
2022-10-02T00:55:22.171Z,1003.58
2022-10-02T00:56:22.175Z,1003.51
2022-10-02T00:57:22.164Z,1003.6
2022-10-02T00:58:22.147Z,1003.55
2022-10-02T00:59:22.156Z,1003.55
2022-10-02T01:00:22.149Z,1003.6
2022-10-02T01:01:22.189Z,1003.6
2022-10-02T01:02:22.215Z,1003.55
2022-10-02T01:03:22.177Z,1003.62
2022-10-02T01:04:22.186Z,1003.59
2022-10-02T01:05:22.234Z,1003.61
2022-10-02T01:06:22.213Z,1003.62
2022-10-02T01:07:22.209Z,1003.62
2022-10-02T01:08:22.167Z,1003.66
2022-10-02T01:09:22.169Z,1003.59
2022-10-02T01:10:22.174Z,1003.59
2022-10-02T01:11:22.165Z,1003.64
2022-10-02T01:12:22.175Z,1003.61
2022-10-02T01:13:22.180Z,1003.64
2022-10-02T01:14:22.168Z,1003.68
2022-10-02T01:15:22.244Z,1003.69
2022-10-02T01:16:22.219Z,1003.67
2022-10-02T01:17:22.187Z,1003.71
2022-10-02T01:18:22.195Z,1003.71
2022-10-02T01:19:22.172Z,1003.72
2022-10-02T01:20:22.169Z,1003.74
2022-10-02T01:21:22.180Z,1003.75
2022-10-02T01:22:22.169Z,1003.74
2022-10-02T01:23:22.172Z,1003.74
2022-10-02T01:24:22.215Z,1003.74
2022-10-02T01:25:22.684Z,1003.75
2022-10-02T01:26:23.191Z,1003.76
2022-10-02T01:27:23.246Z,1003.77
2022-10-02T01:28:22.631Z,1003.76
2022-10-02T01:29:22.260Z,1003.72
2022-10-02T01:30:22.175Z,1003.76
2022-10-02T01:31:22.471Z,1003.77
2022-10-02T01:32:21.736Z,1003.77
2022-10-02T01:33:22.213Z,1003.8
2022-10-02T01:34:22.599Z,1003.82
2022-10-02T01:35:22.873Z,1003.81
2022-10-02T01:36:22.344Z,1003.79
2022-10-02T01:37:22.705Z,1003.82
2022-10-02T01:38:22.699Z,1003.8
2022-10-02T01:39:22.190Z,1003.78
2022-10-02T01:40:22.252Z,1003.79
2022-10-02T01:41:22.313Z,1003.83
2022-10-02T01:42:22.202Z,1003.77
2022-10-02T01:43:22.173Z,1003.81
2022-10-02T01:44:22.165Z,1003.78
2022-10-02T01:45:22.309Z,1003.83
2022-10-02T01:46:22.184Z,1003.88
2022-10-02T01:47:22.183Z,1003.84
2022-10-02T01:48:22.181Z,1003.85
2022-10-02T01:49:22.255Z,1003.85
2022-10-02T01:50:22.249Z,1003.89
2022-10-02T01:51:22.183Z,1003.92
2022-10-02T01:52:22.325Z,1003.91
2022-10-02T01:53:22.423Z,1003.91
2022-10-02T01:54:22.312Z,1003.91
2022-10-02T01:55:22.242Z,1003.91
2022-10-02T01:56:22.234Z,1003.92
2022-10-02T01:57:22.562Z,1003.91
2022-10-02T01:58:22.320Z,1003.94
2022-10-02T01:59:22.372Z,1003.91
2022-10-02T02:00:22.400Z,1003.89
2022-10-02T02:01:22.343Z,1003.89
2022-10-02T02:02:22.502Z,1003.87
2022-10-02T02:03:22.579Z,1003.88
2022-10-02T02:04:23.063Z,1003.86
2022-10-02T02:05:22.504Z,1003.87
2022-10-02T02:06:22.727Z,1003.91
2022-10-02T02:07:22.541Z,1003.87
2022-10-02T02:08:22.298Z,1003.92
2022-10-02T02:09:22.492Z,1003.85
2022-10-02T02:10:22.243Z,1003.83
2022-10-02T02:11:22.313Z,1003.85
2022-10-02T02:12:23.419Z,1003.9
2022-10-02T02:13:22.263Z,1003.88
2022-10-02T02:14:22.547Z,1003.86
2022-10-02T02:15:23.079Z,1003.87
2022-10-02T02:16:22.931Z,1003.83
2022-10-02T02:17:22.292Z,1003.84
2022-10-02T02:18:22.604Z,1003.83
2022-10-02T02:19:22.733Z,1003.81
2022-10-02T02:20:22.807Z,1003.76
2022-10-02T02:21:25.497Z,1003.77
2022-10-02T02:22:23.055Z,1003.74
2022-10-02T02:23:22.368Z,1003.78
2022-10-02T02:24:22.736Z,1003.75
2022-10-02T02:25:23.115Z,1003.67
2022-10-02T02:26:22.654Z,1003.67
2022-10-02T02:27:22.604Z,1003.66
2022-10-02T02:28:22.931Z,1003.64
2022-10-02T02:29:22.478Z,1003.66
2022-10-02T02:30:22.223Z,1003.71
2022-10-02T02:31:22.443Z,1003.69
2022-10-02T02:32:22.252Z,1003.67
2022-10-02T02:33:22.204Z,1003.67
2022-10-02T02:34:22.188Z,1003.65
2022-10-02T02:35:22.199Z,1003.65
2022-10-02T02:36:22.358Z,1003.64
2022-10-02T02:37:22.280Z,1003.63
2022-10-02T02:38:22.485Z,1003.68
2022-10-02T02:39:22.264Z,1003.67
2022-10-02T02:40:22.306Z,1003.69
2022-10-02T02:41:22.501Z,1003.71
2022-10-02T02:42:26.553Z,1003.69
2022-10-02T02:43:22.199Z,1003.68
2022-10-02T02:44:22.224Z,1003.69
2022-10-02T02:45:22.297Z,1003.69
2022-10-02T02:46:22.230Z,1003.76
2022-10-02T02:47:22.212Z,1003.74
2022-10-02T02:48:22.225Z,1003.72
2022-10-02T02:49:22.223Z,1003.73
2022-10-02T02:50:22.200Z,1003.76
2022-10-02T02:51:22.214Z,1003.74
2022-10-02T02:52:22.219Z,1003.77
2022-10-02T02:53:22.233Z,1003.78
2022-10-02T02:54:22.215Z,1003.79
2022-10-02T02:55:22.247Z,1003.82
2022-10-02T02:56:22.231Z,1003.83
2022-10-02T02:57:22.354Z,1003.84
2022-10-02T02:58:22.200Z,1003.87
2022-10-02T02:59:22.226Z,1003.88
2022-10-02T03:00:22.232Z,1003.88
2022-10-02T03:01:22.340Z,1003.93
2022-10-02T03:02:22.283Z,1003.88
2022-10-02T03:03:22.243Z,1003.89
2022-10-02T03:04:22.208Z,1003.85
2022-10-02T03:05:22.225Z,1003.83
2022-10-02T03:06:22.251Z,1003.86
2022-10-02T03:07:22.276Z,1003.79
2022-10-02T03:08:22.269Z,1003.81
2022-10-02T03:09:22.221Z,1003.83
2022-10-02T03:10:22.260Z,1003.85
2022-10-02T03:11:22.237Z,1003.81
2022-10-02T03:12:22.239Z,1003.81
2022-10-02T03:13:22.233Z,1003.79
2022-10-02T03:14:22.242Z,1003.82
2022-10-02T03:15:22.228Z,1003.8
2022-10-02T03:16:22.274Z,1003.79
2022-10-02T03:17:22.241Z,1003.8
2022-10-02T03:18:22.244Z,1003.82
2022-10-02T03:19:22.248Z,1003.79
2022-10-02T03:20:22.238Z,1003.75
2022-10-02T03:21:22.260Z,1003.69
2022-10-02T03:22:22.224Z,1003.7
2022-10-02T03:23:22.229Z,1003.69
2022-10-02T03:24:22.238Z,1003.73
2022-10-02T03:25:22.239Z,1003.72
2022-10-02T03:26:22.240Z,1003.74
2022-10-02T03:27:22.243Z,1003.73
2022-10-02T03:28:50.950Z,1003.71
2022-10-02T03:29:22.252Z,1003.73
2022-10-02T03:30:22.353Z,1003.77
2022-10-02T03:31:22.285Z,1003.71
2022-10-02T03:32:22.232Z,1003.73
2022-10-02T03:33:22.242Z,1003.72
2022-10-02T03:34:22.250Z,1003.74
2022-10-02T03:35:22.255Z,1003.75
2022-10-02T03:36:22.252Z,1003.68
2022-10-02T03:37:22.250Z,1003.73
2022-10-02T03:38:22.254Z,1003.75
2022-10-02T03:39:28.143Z,1003.76
2022-10-02T03:40:22.284Z,1003.81
2022-10-02T03:41:22.367Z,1003.79
2022-10-02T03:42:22.257Z,1003.84
2022-10-02T03:43:22.228Z,1003.79
2022-10-02T03:44:22.251Z,1003.81
2022-10-02T03:45:50.277Z,1003.8
2022-10-02T03:46:22.538Z,1003.82
2022-10-02T03:47:22.311Z,1003.83
2022-10-02T03:48:22.216Z,1003.78
2022-10-02T03:49:22.400Z,1003.8
2022-10-02T03:50:22.308Z,1003.79
2022-10-02T03:51:22.366Z,1003.81
2022-10-02T03:52:22.601Z,1003.78
2022-10-02T03:53:22.323Z,1003.76
2022-10-02T03:54:22.484Z,1003.79
2022-10-02T03:55:22.581Z,1003.74
2022-10-02T03:56:22.832Z,1003.73
2022-10-02T03:57:22.997Z,1003.76
2022-10-02T03:58:22.264Z,1003.75
2022-10-02T03:59:22.270Z,1003.7
2022-10-02T04:00:22.250Z,1003.73
2022-10-02T04:01:22.286Z,1003.74
2022-10-02T04:02:22.270Z,1003.78
2022-10-02T04:03:22.328Z,1003.77
2022-10-02T04:04:22.329Z,1003.73
2022-10-02T04:05:22.265Z,1003.74
2022-10-02T04:06:22.272Z,1003.73
2022-10-02T04:07:22.280Z,1003.69
2022-10-02T04:08:22.257Z,1003.72
2022-10-02T04:09:22.267Z,1003.69
2022-10-02T04:10:22.280Z,1003.73
2022-10-02T04:11:22.275Z,1003.72
2022-10-02T04:12:22.282Z,1003.73
2022-10-02T04:13:22.302Z,1003.73
2022-10-02T04:14:22.412Z,1003.72
2022-10-02T04:15:22.269Z,1003.69
2022-10-02T04:16:22.371Z,1003.7
2022-10-02T04:17:22.264Z,1003.72
2022-10-02T04:18:22.279Z,1003.68
2022-10-02T04:19:22.278Z,1003.63
2022-10-02T04:20:22.282Z,1003.6
2022-10-02T04:21:22.291Z,1003.56
2022-10-02T04:22:22.274Z,1003.56
2022-10-02T04:23:22.295Z,1003.61
2022-10-02T04:24:22.296Z,1003.6
2022-10-02T04:25:22.296Z,1003.63
2022-10-02T04:26:22.270Z,1003.65
2022-10-02T04:27:22.284Z,1003.68
2022-10-02T04:28:22.287Z,1003.68
2022-10-02T04:29:22.277Z,1003.7
2022-10-02T04:30:22.290Z,1003.69
2022-10-02T04:31:22.338Z,1003.75
2022-10-02T04:32:22.313Z,1003.72
2022-10-02T04:33:22.290Z,1003.73
2022-10-02T04:34:22.275Z,1003.72
2022-10-02T04:35:22.299Z,1003.77
2022-10-02T04:36:22.321Z,1003.78
2022-10-02T04:37:22.285Z,1003.84
2022-10-02T04:38:22.272Z,1003.82
2022-10-02T04:39:22.289Z,1003.84
2022-10-02T04:40:22.507Z,1003.84
2022-10-02T04:41:22.815Z,1003.84
2022-10-02T04:42:23.310Z,1003.77
2022-10-02T04:43:22.526Z,1003.83
2022-10-02T04:44:21.859Z,1003.86
2022-10-02T04:45:22.399Z,1003.86
2022-10-02T04:46:22.590Z,1003.88
2022-10-02T04:47:22.284Z,1003.87
2022-10-02T04:48:23.563Z,1003.87
2022-10-02T04:49:22.564Z,1003.86
2022-10-02T04:50:22.977Z,1003.87
2022-10-02T04:51:22.392Z,1003.86
2022-10-02T04:52:22.712Z,1003.84
2022-10-02T04:53:22.725Z,1003.79
2022-10-02T04:54:22.296Z,1003.86
2022-10-02T04:55:22.292Z,1003.85
2022-10-02T04:56:22.289Z,1003.87
2022-10-02T04:57:22.324Z,1003.86
2022-10-02T04:58:22.321Z,1003.85
2022-10-02T04:59:22.314Z,1003.88
2022-10-02T05:00:22.303Z,1003.92
2022-10-02T05:01:22.346Z,1003.87
2022-10-02T05:02:22.339Z,1003.88
2022-10-02T05:03:22.422Z,1003.92
2022-10-02T05:04:22.241Z,1003.87
2022-10-02T05:05:22.332Z,1003.9
2022-10-02T05:06:22.381Z,1003.88
2022-10-02T05:07:22.389Z,1003.89
2022-10-02T05:08:22.559Z,1003.9
2022-10-02T05:09:28.592Z,1003.92
2022-10-02T05:10:22.501Z,1003.91
2022-10-02T05:11:22.980Z,1003.94
2022-10-02T05:12:22.803Z,1003.96
2022-10-02T05:13:22.475Z,1003.97
2022-10-02T05:14:22.822Z,1003.98
2022-10-02T05:15:22.943Z,1004.01
2022-10-02T05:16:22.365Z,1003.95
2022-10-02T05:17:22.319Z,1003.97
2022-10-02T05:18:22.427Z,1003.92
2022-10-02T05:19:22.326Z,1003.98
2022-10-02T05:20:22.536Z,1003.92
2022-10-02T05:21:22.561Z,1003.96
2022-10-02T05:22:22.409Z,1003.99
2022-10-02T05:23:22.375Z,1003.97
2022-10-02T05:24:22.633Z,1003.93
2022-10-02T05:25:22.411Z,1003.91
2022-10-02T05:26:22.502Z,1003.93
2022-10-02T05:27:22.527Z,1003.96
2022-10-02T05:28:22.370Z,1003.93
2022-10-02T05:29:22.559Z,1003.9
2022-10-02T05:30:22.782Z,1003.92
2022-10-02T05:31:24.209Z,1003.91
2022-10-02T05:32:22.705Z,1003.92
2022-10-02T05:33:22.622Z,1003.95
2022-10-02T05:34:22.916Z,1003.99
2022-10-02T05:35:22.682Z,1004.02
2022-10-02T05:36:22.462Z,1004
2022-10-02T05:37:22.680Z,1004.02
2022-10-02T05:38:22.774Z,1004.08
2022-10-02T05:39:22.389Z,1004.08
2022-10-02T05:40:22.328Z,1004.08
2022-10-02T05:41:22.591Z,1004.07
2022-10-02T05:42:22.724Z,1004.04
2022-10-02T05:43:22.529Z,1004.06
2022-10-02T05:44:22.587Z,1004.05
2022-10-02T05:45:22.582Z,1004.08
2022-10-02T05:46:22.406Z,1004.09
2022-10-02T05:47:22.416Z,1004.17
2022-10-02T05:48:22.308Z,1004.19
2022-10-02T05:49:22.324Z,1004.18
2022-10-02T05:50:22.301Z,1004.21
2022-10-02T05:51:22.343Z,1004.26
2022-10-02T05:52:22.416Z,1004.25
2022-10-02T05:53:22.465Z,1004.22
2022-10-02T05:54:22.403Z,1004.22
2022-10-02T05:55:22.337Z,1004.22
2022-10-02T05:56:22.573Z,1004.25
2022-10-02T05:57:22.638Z,1004.28
2022-10-02T05:58:22.341Z,1004.26
2022-10-02T05:59:22.388Z,1004.23
2022-10-02T06:00:22.325Z,1004.28
2022-10-02T06:01:22.425Z,1004.29
2022-10-02T06:02:22.388Z,1004.25
2022-10-02T06:03:22.311Z,1004.24
2022-10-02T06:04:22.341Z,1004.21
2022-10-02T06:05:22.359Z,1004.2
2022-10-02T06:06:22.455Z,1004.16
2022-10-02T06:07:22.334Z,1004.16
2022-10-02T06:08:22.359Z,1004.17
2022-10-02T06:09:23.360Z,1004.11
2022-10-02T06:10:22.373Z,1004.17
2022-10-02T06:11:22.344Z,1004.16
2022-10-02T06:12:22.347Z,1004.22
2022-10-02T06:13:22.361Z,1004.23
2022-10-02T06:14:22.345Z,1004.27
2022-10-02T06:15:22.350Z,1004.28
2022-10-02T06:16:22.395Z,1004.3
2022-10-02T06:17:22.362Z,1004.28
2022-10-02T06:18:22.475Z,1004.31
2022-10-02T06:19:22.358Z,1004.34
2022-10-02T06:20:22.359Z,1004.3
2022-10-02T06:21:22.350Z,1004.33
2022-10-02T06:22:22.350Z,1004.32
2022-10-02T06:23:22.372Z,1004.33
2022-10-02T06:24:22.360Z,1004.26
2022-10-02T06:25:22.337Z,1004.25
2022-10-02T06:26:22.367Z,1004.29
2022-10-02T06:27:22.360Z,1004.36
2022-10-02T06:28:22.630Z,1004.38
2022-10-02T06:29:28.155Z,1004.45
2022-10-02T06:30:22.369Z,1004.51
2022-10-02T06:31:22.411Z,1004.53
2022-10-02T06:32:22.360Z,1004.53
2022-10-02T06:33:22.356Z,1004.58
2022-10-02T06:34:22.379Z,1004.62
2022-10-02T06:35:22.370Z,1004.61
2022-10-02T06:36:22.370Z,1004.61
2022-10-02T06:37:22.382Z,1004.6
2022-10-02T06:38:22.364Z,1004.61
2022-10-02T06:39:22.465Z,1004.59
2022-10-02T06:40:22.363Z,1004.57
2022-10-02T06:41:22.354Z,1004.58
2022-10-02T06:42:22.372Z,1004.61
2022-10-02T06:43:22.371Z,1004.62
2022-10-02T06:44:22.395Z,1004.61
2022-10-02T06:45:22.185Z,1004.6
2022-10-02T06:46:22.375Z,1004.58
2022-10-02T06:47:22.374Z,1004.6
2022-10-02T06:48:22.390Z,1004.6
2022-10-02T06:49:22.383Z,1004.59
2022-10-02T06:50:22.672Z,1004.55
2022-10-02T06:51:22.368Z,1004.53
2022-10-02T06:52:22.369Z,1004.55
2022-10-02T06:53:22.356Z,1004.58
2022-10-02T06:54:22.376Z,1004.57
2022-10-02T06:55:22.366Z,1004.57
2022-10-02T06:56:22.367Z,1004.57
2022-10-02T06:57:22.387Z,1004.6
2022-10-02T06:58:22.379Z,1004.59
2022-10-02T06:59:22.458Z,1004.62
2022-10-02T07:00:22.525Z,1004.59
2022-10-02T07:01:22.400Z,1004.61
2022-10-02T07:02:22.416Z,1004.57
2022-10-02T07:03:22.401Z,1004.58
2022-10-02T07:04:22.438Z,1004.62
2022-10-02T07:05:22.446Z,1004.68
2022-10-02T07:06:22.441Z,1004.73
2022-10-02T07:07:22.538Z,1004.75
2022-10-02T07:08:22.502Z,1004.78
2022-10-02T07:09:22.568Z,1004.75
2022-10-02T07:10:22.896Z,1004.72
2022-10-02T07:11:23.348Z,1004.65
2022-10-02T07:12:22.657Z,1004.65
2022-10-02T07:13:22.396Z,1004.65
2022-10-02T07:14:22.366Z,1004.66
2022-10-02T07:15:22.389Z,1004.69
2022-10-02T07:16:22.396Z,1004.65
2022-10-02T07:17:25.331Z,1004.68
2022-10-02T07:18:22.394Z,1004.69
2022-10-02T07:19:22.380Z,1004.69
2022-10-02T07:20:22.407Z,1004.73
2022-10-02T07:21:22.397Z,1004.74
2022-10-02T07:22:43.726Z,1004.8
2022-10-02T07:23:22.396Z,1004.8
2022-10-02T07:24:22.389Z,1004.77
2022-10-02T07:25:22.381Z,1004.8
2022-10-02T07:26:22.395Z,1004.79
2022-10-02T07:27:22.393Z,1004.8
2022-10-02T07:28:22.423Z,1004.76
2022-10-02T07:29:22.416Z,1004.76
2022-10-02T07:30:22.418Z,1004.76
2022-10-02T07:31:22.475Z,1004.78
2022-10-02T07:32:22.396Z,1004.77
2022-10-02T07:33:25.352Z,1004.86
2022-10-02T07:34:22.616Z,1004.86
2022-10-02T07:35:22.399Z,1004.86
2022-10-02T07:36:22.394Z,1004.9
2022-10-02T07:37:22.399Z,1004.88
2022-10-02T07:38:22.414Z,1004.9
2022-10-02T07:39:22.407Z,1004.9
2022-10-02T07:40:22.394Z,1004.89
2022-10-02T07:41:22.383Z,1004.89
2022-10-02T07:42:22.412Z,1004.87
2022-10-02T07:43:22.404Z,1004.91
2022-10-02T07:44:22.450Z,1004.96
2022-10-02T07:45:22.581Z,1005.01
2022-10-02T07:46:22.406Z,1005.05
2022-10-02T07:47:22.399Z,1005.11
2022-10-02T07:48:22.388Z,1005.11
2022-10-02T07:49:22.397Z,1005.12
2022-10-02T07:50:22.401Z,1005.08
2022-10-02T07:51:24.461Z,1005.13
2022-10-02T07:52:22.440Z,1005.15
2022-10-02T07:53:22.431Z,1005.16
2022-10-02T07:54:22.411Z,1005.16
2022-10-02T07:55:22.433Z,1005.16
2022-10-02T07:56:22.672Z,1005.23
2022-10-02T07:57:22.411Z,1005.2
2022-10-02T07:58:22.677Z,1005.2
2022-10-02T07:59:21.908Z,1005.2
2022-10-02T08:00:22.396Z,1005.2
2022-10-02T08:01:22.540Z,1005.2
2022-10-02T08:02:21.899Z,1005.24
2022-10-02T08:03:22.457Z,1005.19
2022-10-02T08:04:22.529Z,1005.2
2022-10-02T08:05:22.779Z,1005.18
2022-10-02T08:06:22.842Z,1005.21
2022-10-02T08:07:22.724Z,1005.22
2022-10-02T08:08:22.838Z,1005.28
2022-10-02T08:09:22.410Z,1005.26
2022-10-02T08:10:22.369Z,1005.31
2022-10-02T08:11:22.469Z,1005.29
2022-10-02T08:12:22.489Z,1005.3
2022-10-02T08:13:22.483Z,1005.31
2022-10-02T08:14:22.531Z,1005.34
2022-10-02T08:15:22.533Z,1005.27
2022-10-02T08:16:22.595Z,1005.29
2022-10-02T08:17:22.531Z,1005.35
2022-10-02T08:18:34.441Z,1005.35
2022-10-02T08:19:22.580Z,1005.38
2022-10-02T08:20:25.416Z,1005.37
2022-10-02T08:21:23.046Z,1005.4
2022-10-02T08:22:23.373Z,1005.35
2022-10-02T08:23:22.714Z,1005.4
2022-10-02T08:24:22.424Z,1005.36
2022-10-02T08:25:22.434Z,1005.32
2022-10-02T08:26:22.429Z,1005.33
2022-10-02T08:27:22.436Z,1005.35
2022-10-02T08:28:22.494Z,1005.36
2022-10-02T08:29:22.398Z,1005.37
2022-10-02T08:30:22.420Z,1005.38
2022-10-02T08:31:22.477Z,1005.37
2022-10-02T08:32:22.422Z,1005.33
2022-10-02T08:33:22.428Z,1005.34
2022-10-02T08:34:22.412Z,1005.33
2022-10-02T08:35:22.407Z,1005.29
2022-10-02T08:36:22.490Z,1005.31
2022-10-02T08:37:22.499Z,1005.32
2022-10-02T08:38:22.543Z,1005.32
2022-10-02T08:39:22.503Z,1005.3
2022-10-02T08:40:22.672Z,1005.34
2022-10-02T08:41:22.510Z,1005.34
2022-10-02T08:42:22.557Z,1005.35
2022-10-02T08:43:22.471Z,1005.36
2022-10-02T08:44:22.770Z,1005.4
2022-10-02T08:45:22.818Z,1005.35
2022-10-02T08:46:22.528Z,1005.35
2022-10-02T08:47:22.880Z,1005.38
2022-10-02T08:48:22.894Z,1005.37
2022-10-02T08:49:22.631Z,1005.37
2022-10-02T08:50:22.806Z,1005.4
2022-10-02T08:51:23.233Z,1005.37
2022-10-02T08:52:22.793Z,1005.35
2022-10-02T08:53:22.543Z,1005.37
2022-10-02T08:54:22.402Z,1005.42
2022-10-02T08:55:22.805Z,1005.38
2022-10-02T08:56:23.541Z,1005.38
2022-10-02T08:57:22.491Z,1005.39
2022-10-02T08:58:22.434Z,1005.41
2022-10-02T08:59:22.679Z,1005.44
2022-10-02T09:00:22.733Z,1005.48
2022-10-02T09:01:22.480Z,1005.48
2022-10-02T09:02:22.584Z,1005.51
2022-10-02T09:03:22.424Z,1005.42
2022-10-02T09:04:22.416Z,1005.41
2022-10-02T09:05:22.467Z,1005.42
2022-10-02T09:06:22.425Z,1005.41
2022-10-02T09:07:28.575Z,1005.42
2022-10-02T09:08:22.486Z,1005.36
2022-10-02T09:09:22.491Z,1005.35
2022-10-02T09:10:22.482Z,1005.42
2022-10-02T09:11:22.561Z,1005.38
2022-10-02T09:12:22.738Z,1005.39
2022-10-02T09:13:22.433Z,1005.39
2022-10-02T09:14:22.419Z,1005.38
2022-10-02T09:15:22.460Z,1005.43
2022-10-02T09:16:22.529Z,1005.42
2022-10-02T09:17:22.484Z,1005.46
2022-10-02T09:18:22.586Z,1005.4
2022-10-02T09:19:22.490Z,1005.44
2022-10-02T09:20:22.402Z,1005.48
2022-10-02T09:21:22.431Z,1005.5
2022-10-02T09:22:22.556Z,1005.46
2022-10-02T09:23:22.496Z,1005.47
2022-10-02T09:24:22.460Z,1005.44
2022-10-02T09:25:22.434Z,1005.44
2022-10-02T09:26:22.430Z,1005.43
2022-10-02T09:27:22.432Z,1005.44
2022-10-02T09:28:22.468Z,1005.42
2022-10-02T09:29:22.473Z,1005.4
2022-10-02T09:30:22.542Z,1005.47
2022-10-02T09:31:22.436Z,1005.43
2022-10-02T09:32:22.435Z,1005.43
2022-10-02T09:33:22.427Z,1005.43
2022-10-02T09:34:22.408Z,1005.42
2022-10-02T09:35:22.467Z,1005.42
2022-10-02T09:36:22.435Z,1005.39
2022-10-02T09:37:22.410Z,1005.42
2022-10-02T09:38:22.510Z,1005.4
2022-10-02T09:39:22.435Z,1005.39
2022-10-02T09:40:22.561Z,1005.44
2022-10-02T09:41:22.433Z,1005.47
2022-10-02T09:42:22.417Z,1005.5
2022-10-02T09:43:22.415Z,1005.46
2022-10-02T09:44:22.422Z,1005.44
2022-10-02T09:45:22.561Z,1005.46
2022-10-02T09:46:22.416Z,1005.49
2022-10-02T09:47:22.525Z,1005.5
2022-10-02T09:48:22.434Z,1005.42
2022-10-02T09:49:22.421Z,1005.48
2022-10-02T09:50:22.460Z,1005.49
2022-10-02T09:51:22.424Z,1005.49
2022-10-02T09:52:22.439Z,1005.51
2022-10-02T09:53:22.421Z,1005.52
2022-10-02T09:54:22.421Z,1005.52
2022-10-02T09:55:22.433Z,1005.48
2022-10-02T09:56:22.447Z,1005.49
2022-10-02T09:57:22.421Z,1005.49
2022-10-02T09:58:22.426Z,1005.5
2022-10-02T09:59:22.416Z,1005.53
2022-10-02T10:00:22.421Z,1005.55
2022-10-02T10:01:22.494Z,1005.52
2022-10-02T10:02:28.189Z,1005.55
2022-10-02T10:03:22.569Z,1005.53
2022-10-02T10:04:22.448Z,1005.5
2022-10-02T10:05:22.427Z,1005.51
2022-10-02T10:06:22.449Z,1005.43
2022-10-02T10:07:22.532Z,1005.45
2022-10-02T10:08:22.437Z,1005.45
2022-10-02T10:09:22.454Z,1005.45
2022-10-02T10:10:22.419Z,1005.49
2022-10-02T10:11:22.419Z,1005.48
2022-10-02T10:12:22.444Z,1005.47
2022-10-02T10:13:22.444Z,1005.5
2022-10-02T10:14:22.512Z,1005.48
2022-10-02T10:15:22.492Z,1005.48
2022-10-02T10:16:22.593Z,1005.51
2022-10-02T10:17:22.495Z,1005.53
2022-10-02T10:18:22.497Z,1005.48
2022-10-02T10:19:22.489Z,1005.5
2022-10-02T10:20:22.563Z,1005.47
2022-10-02T10:21:24.721Z,1005.47
2022-10-02T10:22:22.548Z,1005.46
2022-10-02T10:23:22.668Z,1005.48
2022-10-02T10:24:22.505Z,1005.46
2022-10-02T10:25:23.089Z,1005.51
2022-10-02T10:26:23.046Z,1005.51
2022-10-02T10:27:23.186Z,1005.47
2022-10-02T10:28:22.721Z,1005.47
2022-10-02T10:29:22.445Z,1005.48
2022-10-02T10:30:22.492Z,1005.45
2022-10-02T10:31:22.519Z,1005.44
2022-10-02T10:32:22.455Z,1005.48
2022-10-02T10:33:22.455Z,1005.44
2022-10-02T10:34:22.464Z,1005.49
2022-10-02T10:35:22.441Z,1005.55
2022-10-02T10:36:22.520Z,1005.49
2022-10-02T10:37:22.436Z,1005.55
2022-10-02T10:38:22.428Z,1005.57
2022-10-02T10:39:22.425Z,1005.57
2022-10-02T10:40:22.474Z,1005.56
2022-10-02T10:41:22.441Z,1005.59
2022-10-02T10:42:22.411Z,1005.61
2022-10-02T10:43:22.434Z,1005.64
2022-10-02T10:44:22.439Z,1005.68
2022-10-02T10:45:22.454Z,1005.62
2022-10-02T10:46:22.564Z,1005.65
2022-10-02T10:47:22.422Z,1005.69
2022-10-02T10:48:22.464Z,1005.73
2022-10-02T10:49:22.402Z,1005.71
2022-10-02T10:50:22.429Z,1005.77
2022-10-02T10:51:22.451Z,1005.76
2022-10-02T10:52:22.444Z,1005.76
2022-10-02T10:53:22.445Z,1005.76
2022-10-02T10:54:22.445Z,1005.77
2022-10-02T10:55:22.519Z,1005.76
2022-10-02T10:56:22.436Z,1005.68
2022-10-02T10:57:22.455Z,1005.72
2022-10-02T10:58:22.699Z,1005.7
2022-10-02T10:59:26.714Z,1005.73
2022-10-02T11:00:22.654Z,1005.8
2022-10-02T11:01:22.712Z,1005.74
2022-10-02T11:02:22.689Z,1005.83
2022-10-02T11:03:22.666Z,1005.81
2022-10-02T11:04:22.445Z,1005.88
2022-10-02T11:05:22.472Z,1005.84
2022-10-02T11:06:22.450Z,1005.89
2022-10-02T11:07:22.493Z,1005.84
2022-10-02T11:08:22.438Z,1005.85
2022-10-02T11:09:22.443Z,1005.89
2022-10-02T11:10:22.518Z,1005.88
2022-10-02T11:11:22.441Z,1005.89
2022-10-02T11:12:22.514Z,1005.8
2022-10-02T11:13:22.458Z,1005.92
2022-10-02T11:14:22.474Z,1005.91
2022-10-02T11:15:22.670Z,1005.93
2022-10-02T11:16:22.795Z,1005.92
2022-10-02T11:17:22.357Z,1005.97
2022-10-02T11:18:22.507Z,1005.94
2022-10-02T11:19:23.600Z,1006
2022-10-02T11:20:21.949Z,1005.95
2022-10-02T11:21:22.516Z,1005.92
2022-10-02T11:22:22.546Z,1005.93
2022-10-02T11:23:22.859Z,1006.02
2022-10-02T11:24:22.455Z,1006.03
2022-10-02T11:25:22.856Z,1005.99
2022-10-02T11:26:23.211Z,1006.04
2022-10-02T11:27:22.780Z,1006.06
2022-10-02T11:28:23.446Z,1006.03
2022-10-02T11:29:23.078Z,1005.94
2022-10-02T11:30:22.797Z,1006.01
2022-10-02T11:31:22.604Z,1005.97
2022-10-02T11:32:22.456Z,1005.98
2022-10-02T11:33:22.439Z,1006
2022-10-02T11:34:22.449Z,1005.97
2022-10-02T11:35:22.108Z,1006.04
2022-10-02T11:36:22.461Z,1006.02
2022-10-02T11:37:22.493Z,1006.09
2022-10-02T11:38:22.498Z,1006.07
2022-10-02T11:39:22.568Z,1006.05
2022-10-02T11:40:22.558Z,1006.02
2022-10-02T11:41:22.585Z,1006.03
2022-10-02T11:42:22.495Z,1006.06
2022-10-02T11:43:22.454Z,1006.08
2022-10-02T11:44:22.442Z,1006.04
2022-10-02T11:45:22.547Z,1006.11
2022-10-02T11:46:22.528Z,1006.07
2022-10-02T11:47:22.482Z,1006.08
2022-10-02T11:48:22.710Z,1006.15
2022-10-02T11:49:22.667Z,1006.14
2022-10-02T11:50:22.870Z,1006.11
2022-10-02T11:51:22.646Z,1006.14
2022-10-02T11:52:23.061Z,1006.16
2022-10-02T11:53:22.580Z,1006.19
2022-10-02T11:54:22.656Z,1006.16
2022-10-02T11:55:22.775Z,1006.1
2022-10-02T11:56:23.016Z,1006.15
2022-10-02T11:57:23.004Z,1006.15
2022-10-02T11:58:23.399Z,1006.16
2022-10-02T11:59:23.004Z,1006.12
2022-10-02T12:00:23.274Z,1006.15
2022-10-02T12:01:23.088Z,1006.16
2022-10-02T12:02:23.383Z,1006.12
2022-10-02T12:03:23.103Z,1006.13
2022-10-02T12:04:23.233Z,1006.15
2022-10-02T12:05:23.693Z,1006.16
2022-10-02T12:06:23.004Z,1006.14
2022-10-02T12:07:22.856Z,1006.14
2022-10-02T12:08:22.876Z,1006.11